Accueil
METAR-TAF:

METAR-TAF

Aéroports :

Cranfield, Angleterre

latitude: 52-04N, longitude: 000-37W, altitude: 111 m

Observation

Le bulletin a été fait il y a 7 heures et 10 minutes, à 17:20 UTC
Vent 7 kt de sud, variant entre est/sud-est et sud/sud-ouest
Température 24°C
Humidité 44%
Pression 1014 hPa
Visibilité 10 km ou plus
pas de nuages en-dessous de 1500 mètres et pas de cumulonimbus.

METAR: EGTC 171720Z 17007KT 120V200 CAVOK 24/11 Q1014

Heure: 01:30 (00:30 UTC)

Prévision

Le bulletin a été fait il y a 10 heures et 33 minutes, à 13:57 UTC
Prévision valable du 17 à 15 UTC au 17 à 18 UTC
Vent 10 kt de sud
Visibilité 10 km ou plus
Quelques nuages à une hauteur de 4500 ft
Probabilité 30% :
Temporairement
du 17 à 16 UTC au 17 à 18 UTC
Vent 15 kt de sud/sud-est avec des rafales jusqu'à 26 kt
Visibilité: 7000 m
averses de pluie

TAF: EGTC 171357Z 1715/1718 17010KT 9999 FEW045 PROB30 TEMPO 1716/1718 16015G26KT 7000 SHRA

Observations et prévisions météorologiques de plus de 4000 aéroports (messages METAR et TAF).

Les stations disponibles sont représentées par des disques jaunes et rouges sur la carte.

Passer la souris dessus pour voir le nom de la station.

Cliquer dessus pour voir les observations et prévisions météorologiques.

Pour changer de carte: cliquez sur les boutons verts avec une croix noire pour zoomer, sur le bouton vert avec un tiret pour effectuer un zoom arrière, ou sur les flèches vertes pour les cartes adjacentes.


METAR-TAF: